Time;durP1;ratioP1;P1;durP2;ratioP2;P2;SDS_P1;SDS_P2;PMS_P1;PMS_P2;Temp;Humidity;BMP_temperature;BMP_pressure;BME280_temperature;BME280_humidity;BME280_pressure;Samples;Min_cycle;Max_cycle;Signal;HPM_P1;HPM_P2
2022/04/11 00:01:26;;;;;;;;;5.67;5.67;;;;;25.55;19.72;100996.28;5035965;28;45628;-82
2022/04/11 00:03:51;;;;;;;;;4.00;3.67;;;;;25.69;19.91;101034.66;5035979;28;46436;-82
2022/04/11 00:06:17;;;;;;;;;5.00;4.67;;;;;25.65;20.11;101039.34;5036143;28;45470;-82
2022/04/11 00:08:42;;;;;;;;;3.00;3.00;;;;;25.50;20.26;101018.22;5034862;28;45841;-82
2022/04/11 00:11:08;;;;;;;;;4.00;4.00;;;;;25.78;20.20;101049.69;5034758;28;45486;-82
2022/04/11 00:13:34;;;;;;;;;5.00;5.00;;;;;25.43;19.81;100989.50;5035641;28;45458;-82
2022/04/11 00:16:00;;;;;;;;;5.00;4.00;;;;;25.47;19.95;100999.28;5036298;28;45427;-82
2022/04/11 00:18:25;;;;;;;;;5.00;4.00;;;;;25.45;20.26;101002.06;5035663;28;45448;-81
2022/04/11 00:20:51;;;;;;;;;4.00;4.00;;;;;25.56;20.42;101034.25;5034943;28;45639;-82
2022/04/11 00:23:16;;;;;;;;;3.67;3.67;;;;;25.39;20.10;100985.16;5034763;28;47952;-82
2022/04/11 00:25:42;;;;;;;;;4.33;4.33;;;;;25.74;20.01;101053.47;5051082;28;45341;-82
2022/04/11 00:28:08;;;;;;;;;5.00;4.00;;;;;25.47;20.35;101015.59;5035889;28;45574;-82
2022/04/11 00:30:34;;;;;;;;;4.00;4.00;;;;;25.29;20.26;100984.59;5035716;28;45294;-81
2022/04/11 00:33:00;;;;;;;;;5.00;3.67;;;;;25.64;20.33;101028.50;5035700;28;46608;-82
2022/04/11 00:35:25;;;;;;;;;3.67;3.67;;;;;25.55;19.82;101013.47;5034493;28;45824;-82
2022/04/11 00:37:50;;;;;;;;;4.33;4.00;;;;;25.19;20.39;100962.34;5034110;28;45954;-82
2022/04/11 00:40:17;;;;;;;;;3.00;3.00;;;;;25.40;20.69;100989.63;5035388;28;47463;-82
2022/04/11 00:42:42;;;;;;;;;4.00;4.00;;;;;25.36;20.23;100988.88;5035160;28;46482;-82
2022/04/11 00:45:08;;;;;;;;;3.00;3.00;;;;;25.47;20.37;101012.88;5034016;28;45814;-82
2022/04/11 00:47:33;;;;;;;;;3.33;3.33;;;;;24.90;20.58;100912.75;5034341;28;45471;-82
2022/04/11 00:50:05;;;;;;;;;3.00;3.00;;;;;24.95;20.30;100913.47;5035708;28;45229;-82
2022/04/11 00:52:32;;;;;;;;;4.00;3.33;;;;;25.08;20.36;100916.59;5033849;28;48323;-82
2022/04/11 00:54:58;;;;;;;;;3.00;3.00;;;;;25.05;20.03;100913.09;5033986;28;45324;-82
2022/04/11 00:57:24;;;;;;;;;4.67;4.67;;;;;25.32;20.52;100946.47;5034233;28;45504;-82
2022/04/11 00:59:50;;;;;;;;;3.00;3.00;;;;;25.42;20.36;100971.44;5034030;28;45635;-82
2022/04/11 01:02:16;;;;;;;;;2.00;2.00;;;;;25.01;20.42;100925.94;5034039;28;47294;-82
2022/04/11 01:04:41;;;;;;;;;5.00;3.00;;;;;25.11;20.21;100946.34;5033719;28;45445;-82
2022/04/11 01:07:10;;;;;;;;;4.33;4.00;;;;;25.33;20.42;100970.00;5034201;28;45357;-82
2022/04/11 01:09:36;;;;;;;;;4.00;3.00;;;;;25.16;20.60;100940.72;5034082;28;45528;-82
2022/04/11 01:12:02;;;;;;;;;4.00;3.00;;;;;25.38;20.40;100973.38;5033321;28;47167;-82
2022/04/11 01:14:28;;;;;;;;;7.33;4.67;;;;;25.25;20.48;100953.06;5035259;28;45445;-82
2022/04/11 01:16:54;;;;;;;;;4.00;4.00;;;;;24.97;20.58;100898.00;5033940;28;45417;-82
2022/04/11 01:19:20;;;;;;;;;5.33;5.33;;;;;25.02;20.79;100897.84;5035408;28;45435;-82
2022/04/11 01:21:47;;;;;;;;;8.33;5.67;;;;;25.12;20.91;100922.81;5033625;28;47934;-82
2022/04/11 01:24:13;;;;;;;;;3.67;3.67;;;;;25.22;20.67;100943.22;5035217;28;45409;-82
2022/04/11 01:26:39;;;;;;;;;5.00;5.00;;;;;25.24;21.02;100932.28;5033339;28;45423;-82
2022/04/11 01:29:08;;;;;;;;;4.67;4.67;;;;;25.06;20.82;100909.44;5035029;28;45406;-82
2022/04/11 01:31:34;;;;;;;;;5.00;4.67;;;;;25.11;20.92;100905.63;5034721;28;45537;-82
2022/04/11 01:34:00;;;;;;;;;4.00;4.00;;;;;25.13;20.67;100913.69;5033473;28;45250;-81
2022/04/11 01:36:25;;;;;;;;;5.33;4.67;;;;;24.90;20.74;100885.63;5035225;28;46289;-82
2022/04/11 01:38:51;;;;;;;;;6.33;4.67;;;;;24.57;21.00;100834.41;5050457;28;45583;-82
2022/04/11 01:41:19;;;;;;;;;3.67;3.67;;;;;24.80;20.92;100879.66;5033264;28;47106;-82
2022/04/11 01:43:45;;;;;;;;;5.00;5.00;;;;;25.05;21.13;100921.25;5037780;28;45450;-82
2022/04/11 01:46:10;;;;;;;;;7.00;5.00;;;;;24.60;21.16;100841.53;5037284;28;45406;-82
2022/04/11 01:48:35;;;;;;;;;4.00;4.00;;;;;24.57;21.45;100860.63;5038290;28;45506;-82
2022/04/11 01:51:01;;;;;;;;;6.00;4.00;;;;;24.47;21.12;100842.00;5038091;28;46217;-83
2022/04/11 01:53:26;;;;;;;;;5.00;5.00;;;;;24.88;20.85;100914.66;5036839;28;45443;-82
2022/04/11 01:55:51;;;;;;;;;4.00;4.00;;;;;24.71;21.42;100877.31;5037898;28;45484;-82
2022/04/11 01:58:17;;;;;;;;;7.00;5.00;;;;;24.43;21.49;100834.03;5038513;28;45435;-82
2022/04/11 02:00:43;;;;;;;;;4.00;4.00;;;;;24.47;21.33;100836.59;5037816;28;46458;-82
2022/04/11 02:03:10;;;;;;;;;4.67;4.67;;;;;24.90;21.55;100898.31;5038194;28;46203;-82
2022/04/11 02:05:35;;;;;;;;;5.00;5.00;;;;;24.78;21.38;100883.38;5038217;28;45331;-82
2022/04/11 02:08:02;;;;;;;;;7.33;6.33;;;;;24.84;21.45;100891.28;5037989;28;45246;-82
2022/04/11 02:10:27;;;;;;;;;6.33;5.00;;;;;24.77;21.02;100887.06;5037454;28;45434;-82
2022/04/11 02:12:54;;;;;;;;;5.00;4.33;;;;;24.55;20.92;100840.81;5036374;28;45860;-82
2022/04/11 02:15:19;;;;;;;;;2.67;2.67;;;;;24.80;21.24;100892.34;5038075;28;45398;-82
2022/04/11 02:17:50;;;;;;;;;3.00;3.00;;;;;24.55;20.42;100835.41;5037860;28;45396;-82
2022/04/11 02:20:16;;;;;;;;;3.00;2.00;;;;;24.44;20.56;100835.78;5036642;28;48075;-82
2022/04/11 02:22:45;;;;;;;;;3.00;2.00;;;;;24.75;20.51;100880.78;5036212;28;45869;-82
2022/04/11 02:25:11;;;;;;;;;3.00;3.00;;;;;24.43;20.61;100821.38;5037600;28;45590;-82
2022/04/11 02:27:36;;;;;;;;;3.00;3.00;;;;;24.41;20.10;100822.34;5037711;28;45621;-82
2022/04/11 02:30:03;;;;;;;;;5.00;3.00;;;;;24.76;20.84;100869.00;5037410;28;45571;-82
2022/04/11 02:32:28;;;;;;;;;4.33;3.00;;;;;24.28;20.33;100776.72;5037757;28;45328;-82
2022/04/11 02:34:53;;;;;;;;;3.00;3.00;;;;;24.69;20.84;100851.19;5037372;28;45213;-82
2022/04/11 02:37:19;;;;;;;;;4.67;3.67;;;;;24.40;20.60;100804.31;5037836;28;45366;-82
2022/04/11 02:39:44;;;;;;;;;5.67;3.00;;;;;24.78;20.96;100864.38;5035540;28;52002;-82
2022/04/11 02:42:09;;;;;;;;;3.00;3.00;;;;;24.64;20.37;100844.09;5036188;28;45296;-82
2022/04/11 02:44:34;;;;;;;;;3.00;3.00;;;;;24.74;20.71;100870.88;5037605;28;45391;-82
2022/04/11 02:47:00;;;;;;;;;4.00;3.33;;;;;24.30;20.23;100779.38;5036089;28;45676;-82
2022/04/11 02:49:25;;;;;;;;;3.00;3.00;;;;;24.58;20.12;100835.28;5036076;28;47083;-82
2022/04/11 02:51:50;;;;;;;;;3.00;2.00;;;;;24.40;20.43;100805.22;5037278;28;45376;-82
2022/04/11 02:54:16;;;;;;;;;2.67;2.67;;;;;24.52;20.24;100813.81;5035803;28;45406;-82
2022/04/11 02:56:41;;;;;;;;;3.00;3.00;;;;;24.74;20.29;100852.78;5036093;28;45433;-82
2022/04/11 02:59:06;;;;;;;;;6.33;3.67;;;;;24.16;20.74;100774.47;5035755;28;48101;-82
2022/04/11 03:01:32;;;;;;;;;4.33;3.67;;;;;24.37;20.43;100815.28;5037081;28;45328;-82
2022/04/11 03:03:57;;;;;;;;;5.33;3.00;;;;;24.21;20.49;100788.75;5037359;28;45259;-82
2022/04/11 03:06:22;;;;;;;;;3.00;3.00;;;;;24.41;20.38;100823.22;5035975;28;45243;-82
2022/04/11 03:08:48;;;;;;;;;3.00;3.00;;;;;24.18;20.26;100772.59;5036563;28;46377;-82
2022/04/11 03:11:13;;;;;;;;;3.00;3.00;;;;;24.34;20.26;100775.59;5035630;28;45379;-82
2022/04/11 03:13:38;;;;;;;;;2.00;2.00;;;;;24.44;20.26;100789.69;5037184;28;45303;-82
2022/04/11 03:16:04;;;;;;;;;2.67;2.67;;;;;24.09;19.98;100740.41;5035445;28;45467;-82
2022/04/11 03:18:29;;;;;;;;;2.00;2.00;;;;;24.45;20.32;100796.91;5036842;28;45618;-81
2022/04/11 03:20:54;;;;;;;;;2.33;2.33;;;;;24.19;20.11;100759.91;5036541;28;45375;-81
2022/04/11 03:23:20;;;;;;;;;2.00;1.00;;;;;24.30;20.26;100774.84;5036538;28;45415;-82
2022/04/11 03:25:45;;;;;;;;;2.00;2.00;;;;;24.37;20.08;100782.75;5036832;28;45669;-82
2022/04/11 03:28:10;;;;;;;;;2.00;2.00;;;;;24.32;19.94;100775.66;5036425;28;45461;-82
2022/04/11 03:30:36;;;;;;;;;2.33;2.33;;;;;24.06;19.84;100722.44;5036817;28;45368;-81
2022/04/11 03:33:01;;;;;;;;;2.00;2.00;;;;;24.26;20.24;100765.06;5035200;28;45438;-81
2022/04/11 03:35:26;;;;;;;;;2.67;2.67;;;;;24.27;20.17;100766.81;5036864;28;45427;-81
2022/04/11 03:37:52;;;;;;;;;3.00;3.00;;;;;24.38;20.24;100801.66;5035813;28;45452;-81
2022/04/11 03:40:17;;;;;;;;;3.00;2.67;;;;;24.19;20.20;100768.06;5034690;28;45346;-81
2022/04/11 03:42:43;;;;;;;;;3.67;2.33;;;;;24.27;20.36;100795.75;5036365;28;45729;-81
2022/04/11 03:45:11;;;;;;;;;3.67;3.67;;;;;24.28;20.12;100798.41;5036170;28;45328;-80
2022/04/11 03:47:36;;;;;;;;;2.00;0.00;;;;;24.24;20.13;100783.19;5034825;28;47130;-81
2022/04/11 03:50:02;;;;;;;;;3.33;3.33;;;;;24.24;20.27;100776.91;5034559;28;45941;-81
2022/04/11 03:52:28;;;;;;;;;3.00;3.00;;;;;24.29;20.58;100773.06;5035827;28;45410;-81
2022/04/11 03:54:53;;;;;;;;;4.00;4.00;;;;;24.27;20.57;100766.81;5036285;28;45305;-80
2022/04/11 03:57:18;;;;;;;;;5.00;3.00;;;;;24.21;20.89;100758.94;5034776;28;48312;-80
2022/04/11 03:59:44;;;;;;;;;3.67;3.67;;;;;24.29;21.03;100777.63;5036311;28;45505;-80
2022/04/11 04:02:09;;;;;;;;;7.33;3.00;;;;;24.39;20.67;100786.31;5034772;28;45434;-81
2022/04/11 04:04:34;;;;;;;;;1.33;1.33;;;;;24.13;21.15;100726.69;5036149;28;45626;-80
2022/04/11 04:07:00;;;;;;;;;2.67;2.67;;;;;24.15;21.10;100753.75;5035526;28;46510;-81
2022/04/11 04:09:25;;;;;;;;;3.00;3.00;;;;;23.87;21.15;100713.22;5034823;28;45320;-80
2022/04/11 04:11:51;;;;;;;;;4.00;3.00;;;;;24.09;21.09;100751.25;5036016;28;45460;-80
2022/04/11 04:14:16;;;;;;;;;4.00;4.00;;;;;23.72;21.00;100682.16;5036185;28;45363;-80
2022/04/11 04:16:42;;;;;;;;;5.00;4.00;;;;;23.71;20.84;100669.53;5035922;28;46128;-80
2022/04/11 04:19:08;;;;;;;;;4.33;4.33;;;;;24.03;21.23;100730.69;5034299;28;45518;-80
2022/04/11 04:21:33;;;;;;;;;4.00;4.00;;;;;23.88;20.90;100710.47;5035817;28;45403;-81
2022/04/11 04:23:58;;;;;;;;;4.00;4.00;;;;;24.01;21.28;100735.28;5034731;28;45382;-80
2022/04/11 04:26:24;;;;;;;;;5.33;3.67;;;;;24.04;20.77;100726.16;5035777;28;45400;-80
2022/04/11 04:28:49;;;;;;;;;6.67;4.00;;;;;23.81;20.80;100708.88;5035926;28;45461;-80
2022/04/11 04:31:14;;;;;;;;;7.33;3.67;;;;;23.92;21.12;100728.41;5035759;28;45425;-80
2022/04/11 04:33:40;;;;;;;;;4.00;4.00;;;;;23.90;21.32;100726.69;5035856;28;45538;-81
2022/04/11 04:36:05;;;;;;;;;3.00;3.00;;;;;23.59;21.30;100682.59;5033926;28;46115;-80
2022/04/11 04:38:31;;;;;;;;;4.00;4.00;;;;;23.64;21.46;100696.84;5035895;28;45308;-80
2022/04/11 04:40:57;;;;;;;;;4.00;3.00;;;;;23.94;21.01;100731.03;5035686;28;45319;-80
2022/04/11 04:43:22;;;;;;;;;5.00;5.00;;;;;23.78;20.93;100712.59;5035833;28;45166;-80
2022/04/11 04:45:48;;;;;;;;;3.00;2.33;;;;;23.90;20.79;100718.56;5035393;28;45429;-80
2022/04/11 04:48:13;;;;;;;;;3.33;3.33;;;;;23.98;21.13;100728.16;5033579;28;45879;-80
2022/04/11 04:50:38;;;;;;;;;4.00;4.00;;;;;24.08;20.91;100739.53;5035684;28;45350;-80
2022/04/11 04:53:04;;;;;;;;;3.33;3.00;;;;;23.85;21.46;100707.81;5035111;28;45841;-80
2022/04/11 04:55:29;;;;;;;;;4.67;3.00;;;;;24.04;21.09;100734.28;5035403;28;45510;-80
2022/04/11 04:57:55;;;;;;;;;8.33;7.00;;;;;23.91;21.46;100725.72;5035403;28;45352;-80
2022/04/11 05:00:20;;;;;;;;;7.00;4.67;;;;;23.92;21.26;100730.19;5034235;28;45520;-80
2022/04/11 05:02:45;;;;;;;;;4.67;4.00;;;;;23.82;21.36;100721.50;5035623;28;45480;-83
2022/04/11 05:05:13;;;;;;;;;6.00;6.00;;;;;24.03;21.61;100751.50;5033359;28;47241;-82
2022/04/11 05:07:39;;;;;;;;;3.00;3.00;;;;;23.92;21.30;100738.31;5035333;28;45302;-81
2022/04/11 05:10:05;;;;;;;;;8.00;5.33;;;;;23.92;20.76;100754.59;5033602;28;45396;-80
2022/04/11 05:12:40;;;;;;;;;5.67;4.00;;;;;23.85;21.04;100758.44;5034128;28;45468;-81
2022/04/11 05:15:06;;;;;;;;;5.33;4.00;;;;;23.76;21.24;100755.09;5034385;28;45489;-81
2022/04/11 05:17:31;;;;;;;;;6.00;3.67;;;;;23.70;21.25;100765.28;5036962;28;45353;-81
2022/04/11 05:19:57;;;;;;;;;7.00;4.00;;;;;23.50;21.30;100739.81;5038919;28;45411;-83
2022/04/11 05:22:22;;;;;;;;;4.33;4.33;;;;;23.57;21.16;100760.31;5038678;28;45448;-83
2022/04/11 05:24:47;;;;;;;;;7.00;6.00;;;;;23.55;21.30;100756.75;5036175;28;46374;-81
2022/04/11 05:27:13;;;;;;;;;8.00;7.00;;;;;23.53;21.59;100744.19;5034400;28;45519;-83
2022/04/11 05:29:38;;;;;;;;;6.00;6.00;;;;;23.58;21.70;100745.81;5017610;28;45421;-82
2022/04/11 05:32:04;;;;;;;;;6.00;6.00;;;;;23.63;21.33;100756.50;5018206;28;45646;-82
2022/04/11 05:34:30;;;;;;;;;5.33;5.33;;;;;23.42;21.40;100728.34;5026517;28;45423;-83
2022/04/11 05:36:55;;;;;;;;;4.00;4.00;;;;;23.58;21.32;100750.34;5021032;28;45358;-84
2022/04/11 05:39:21;;;;;;;;;7.33;7.00;;;;;23.44;21.36;100732.75;5017098;28;45442;-81
2022/04/11 05:41:46;;;;;;;;;7.67;7.00;;;;;23.21;20.99;100687.53;5031106;28;45450;-83
2022/04/11 05:44:11;;;;;;;;;6.00;6.00;;;;;23.15;21.10;100690.47;5036475;28;47855;-83
2022/04/11 05:46:36;;;;;;;;;7.00;6.67;;;;;23.45;21.65;100749.91;5035401;28;45820;-83
2022/04/11 05:49:02;;;;;;;;;7.00;7.00;;;;;23.26;21.60;100709.03;5032196;28;45518;-84
2022/04/11 05:51:27;;;;;;;;;6.00;6.00;;;;;23.08;21.53;100664.50;5038203;28;45487;-84
2022/04/11 05:53:53;;;;;;;;;4.00;4.00;;;;;23.51;21.70;100733.44;5037999;28;46536;-83
2022/04/11 05:56:18;;;;;;;;;4.00;4.00;;;;;23.26;21.67;100698.22;5037853;28;45461;-82
2022/04/11 05:58:43;;;;;;;;;7.00;6.00;;;;;23.43;21.71;100712.06;5025199;28;45495;-84
2022/04/11 06:01:10;;;;;;;;;7.00;7.00;;;;;23.57;21.22;100725.09;5030509;28;45305;-85
2022/04/11 06:03:39;;;;;;;;;7.00;6.00;;;;;23.19;21.57;100665.09;5024922;28;46302;-79
2022/04/11 06:06:05;;;;;;;;;6.67;3.67;;;;;23.40;21.58;100724.78;5018166;28;45394;-78
2022/04/11 06:08:31;;;;;;;;;4.67;4.67;;;;;23.58;21.78;100743.09;5028538;28;45530;-78
2022/04/11 06:10:56;;;;;;;;;7.33;6.00;;;;;23.53;21.80;100733.38;5022310;28;45490;-78
2022/04/11 06:13:22;;;;;;;;;6.00;6.00;;;;;23.57;21.77;100744.06;5019305;28;48655;-82
2022/04/11 06:15:47;;;;;;;;;7.00;7.00;;;;;23.52;21.41;100721.66;5039734;28;45506;-82
2022/04/11 06:18:12;;;;;;;;;7.00;7.00;;;;;23.43;21.38;100706.63;5037732;28;45427;-83
2022/04/11 06:20:38;;;;;;;;;6.33;6.33;;;;;23.49;21.49;100705.53;5027082;28;45269;-82
2022/04/11 06:23:03;;;;;;;;;9.00;8.00;;;;;23.42;21.69;100688.63;5017842;28;45736;-83
2022/04/11 06:25:29;;;;;;;;;6.33;6.33;;;;;23.52;21.47;100715.38;5022056;28;45633;-82
2022/04/11 06:27:54;;;;;;;;;7.33;7.33;;;;;23.63;21.35;100735.72;5036972;28;45709;-83
2022/04/11 06:30:19;;;;;;;;;8.00;7.67;;;;;23.49;21.85;100712.75;5046877;28;45398;-82
2022/04/11 06:32:45;;;;;;;;;8.33;7.00;;;;;23.82;21.45;100748.59;5051107;28;46162;-82
2022/04/11 06:35:10;;;;;;;;;6.33;6.33;;;;;23.73;21.50;100733.56;5038349;28;45443;-82
2022/04/11 06:37:36;;;;;;;;;6.33;6.33;;;;;23.80;21.15;100754.06;5037511;28;45619;-82
2022/04/11 06:40:02;;;;;;;;;5.33;5.33;;;;;23.58;21.12;100704.31;5034540;28;45456;-83
2022/04/11 06:42:28;;;;;;;;;7.00;5.00;;;;;23.80;21.17;100716.13;5033712;28;46305;-83
2022/04/11 06:44:54;;;;;;;;;3.33;3.33;;;;;23.88;21.21;100745.69;5025775;28;45293;-82
2022/04/11 06:47:21;;;;;;;;;9.00;6.33;;;;;24.00;20.93;100721.78;5022176;28;45507;-83
2022/04/11 06:49:47;;;;;;;;;6.67;6.67;;;;;24.10;21.27;100732.22;5030411;28;45463;-81
2022/04/11 06:52:13;;;;;;;;;9.00;7.33;;;;;24.06;21.12;100699.88;5033866;28;45468;-82
2022/04/11 06:54:39;;;;;;;;;7.00;7.00;;;;;24.36;20.66;100722.22;5057637;28;45503;-83
2022/04/11 06:57:04;;;;;;;;;8.67;7.67;;;;;24.34;20.87;100704.25;5024701;28;45598;-83
2022/04/11 06:59:30;;;;;;;;;7.00;5.33;;;;;24.28;20.90;100702.66;5028100;28;45410;-83
2022/04/11 07:01:55;;;;;;;;;10.00;9.00;;;;;24.26;21.04;100683.75;5035879;28;45514;-84
2022/04/11 07:04:22;;;;;;;;;5.67;5.00;;;;;24.37;20.85;100696.84;5027748;28;45502;-83
2022/04/11 07:06:47;;;;;;;;;1.00;1.00;;;;;24.08;20.51;100617.56;5027444;28;45362;-83
2022/04/11 07:09:13;;;;;;;;;5.00;5.00;;;;;24.68;21.19;100701.06;5029842;28;45477;-83
2022/04/11 07:11:38;;;;;;;;;4.67;4.67;;;;;24.50;20.59;100645.75;5028430;28;47369;-83
2022/04/11 07:14:05;;;;;;;;;5.00;5.00;;;;;24.63;20.68;100657.00;5028494;28;45742;-83
2022/04/11 07:16:30;;;;;;;;;7.00;4.00;;;;;24.57;20.69;100622.84;5032004;28;45388;-84
2022/04/11 07:18:56;;;;;;;;;7.00;4.00;;;;;24.82;20.09;100670.66;5035044;28;45511;-83
2022/04/11 07:21:21;;;;;;;;;2.00;1.67;;;;;24.48;19.98;100575.25;5032726;28;63211;-84
2022/04/11 07:23:47;;;;;;;;;5.00;3.67;;;;;24.90;20.15;100630.53;5033790;28;45499;-84
2022/04/11 07:26:12;;;;;;;;;4.00;4.00;;;;;24.95;19.90;100635.75;5031604;28;45927;-83
2022/04/11 07:28:37;;;;;;;;;2.00;2.00;;;;;25.30;20.04;100669.53;5032142;28;45687;-85
2022/04/11 07:31:03;;;;;;;;;3.00;3.00;;;;;25.09;19.79;100633.34;5025814;28;47851;-85
2022/04/11 07:33:29;;;;;;;;;4.00;4.00;;;;;25.32;19.65;100656.78;5030840;28;46085;-83
2022/04/11 07:35:54;;;;;;;;;4.33;2.33;;;;;25.52;19.67;100668.59;5033779;28;45520;-85
2022/04/11 07:38:20;;;;;;;;;3.00;3.00;;;;;25.10;19.77;100594.38;5032271;28;45376;-85
2022/04/11 07:40:47;;;;;;;;;3.00;3.00;;;;;25.71;19.57;100665.03;5029902;28;46760;-85
2022/04/11 07:43:12;;;;;;;;;4.33;4.33;;;;;25.37;19.77;100613.13;5027381;28;45416;-85
2022/04/11 07:45:37;;;;;;;;;4.33;3.33;;;;;25.66;19.49;100657.97;5023159;28;45474;-84
2022/04/11 07:48:03;;;;;;;;;5.00;4.00;;;;;25.22;19.58;100576.66;5029679;28;45327;-85
2022/04/11 07:50:28;;;;;;;;;4.00;3.00;;;;;25.47;19.13;100605.44;5032355;28;45505;-85
2022/04/11 07:52:54;;;;;;;;;4.00;4.00;;;;;25.46;19.45;100592.84;5027813;28;45471;-85
2022/04/11 07:55:19;;;;;;;;;4.00;4.00;;;;;25.90;19.36;100643.34;5027880;28;45734;-85
2022/04/11 07:57:44;;;;;;;;;6.33;4.67;;;;;25.63;19.21;100583.91;5053640;28;45592;-85
2022/04/11 08:00:10;;;;;;;;;3.00;3.00;;;;;25.68;19.40;100600.84;5034367;28;47512;-85
2022/04/11 08:02:36;;;;;;;;;4.67;4.00;;;;;26.31;19.19;100660.41;5026419;28;45923;-85
2022/04/11 08:05:03;;;;;;;;;3.00;3.00;;;;;26.12;19.20;100616.94;5029167;28;45467;-85
2022/04/11 08:07:35;;;;;;;;;4.67;3.33;;;;;26.19;19.09;100623.84;5035229;28;45519;-87
2022/04/11 08:10:05;;;;;;;;;5.33;4.00;;;;;26.24;19.39;100642.63;5030510;28;47407;-85
2022/04/11 08:12:31;;;;;;;;;6.00;5.00;;;;;26.41;19.11;100646.38;5028827;28;45884;-84
2022/04/11 08:14:57;;;;;;;;;4.00;4.00;;;;;26.02;19.19;100567.56;5025254;28;45418;-85
2022/04/11 08:17:23;;;;;;;;;5.33;5.00;;;;;26.44;19.04;100625.38;5033278;28;45336;-85
2022/04/11 08:19:48;;;;;;;;;1.00;1.00;;;;;26.35;19.42;100596.75;5024259;28;47958;-85
2022/04/11 08:22:14;;;;;;;;;3.67;3.67;;;;;26.61;19.32;100635.41;5031084;28;45361;-84
2022/04/11 08:24:39;;;;;;;;;3.00;3.00;;;;;26.25;19.20;100562.81;5020503;28;45341;-85
2022/04/11 08:27:04;;;;;;;;;3.33;3.00;;;;;26.70;19.00;100632.25;5024185;28;45524;-84
2022/04/11 08:29:30;;;;;;;;;4.00;3.67;;;;;26.62;19.26;100611.78;5034423;28;45487;-85
2022/04/11 08:31:55;;;;;;;;;4.67;4.67;;;;;26.44;19.17;100560.09;5025901;28;45630;-87
2022/04/11 08:34:21;;;;;;;;;5.33;4.33;;;;;26.78;18.83;100609.19;5029801;28;45467;-85
2022/04/11 08:36:46;;;;;;;;;3.33;3.33;;;;;26.57;18.51;100576.66;5028461;28;45679;-85
2022/04/11 08:39:12;;;;;;;;;10.00;8.67;;;;;26.46;18.93;100560.88;5031932;28;47144;-85
2022/04/11 08:41:37;;;;;;;;;4.67;4.67;;;;;26.92;18.90;100638.44;5021632;28;46002;-86
2022/04/11 08:44:05;;;;;;;;;8.33;5.00;;;;;26.93;18.85;100634.75;5029002;28;45554;-87
2022/04/11 08:46:33;;;;;;;;;4.00;4.00;;;;;27.09;19.20;100641.19;5022803;28;45330;-86
2022/04/11 08:49:00;;;;;;;;;3.00;3.00;;;;;26.70;18.71;100558.75;5024053;28;48078;-85
2022/04/11 08:51:26;;;;;;;;;6.00;4.00;;;;;27.17;19.13;100617.16;5023907;28;45557;-85
2022/04/11 08:53:52;;;;;;;;;6.00;6.00;;;;;27.32;18.82;100615.44;5030461;28;45620;-84
2022/04/11 08:56:17;;;;;;;;;4.67;4.67;;;;;26.97;18.32;100561.00;5027674;28;46472;-85
2022/04/11 08:58:42;;;;;;;;;4.33;4.00;;;;;27.14;18.79;100571.00;5030206;28;48137;-85
2022/04/11 09:01:08;;;;;;;;;6.33;5.33;;;;;27.07;18.55;100563.25;5025808;28;45369;-86
2022/04/11 09:03:33;;;;;;;;;5.00;5.00;;;;;27.01;18.84;100529.06;5030935;28;45416;-85
2022/04/11 09:06:10;;;;;;;;;5.33;4.00;;;;;27.47;18.84;100577.50;5035333;28;45441;-84
2022/04/11 09:08:49;;;;;;;;;4.00;4.00;;;;;27.30;18.85;100540.22;5040152;28;48421;-85
2022/04/11 09:11:30;;;;;;;;;6.00;5.00;;;;;27.43;18.70;100557.69;5048346;28;45565;-84
2022/04/11 09:13:55;;;;;;;;;5.00;3.67;;;;;27.35;18.63;100532.72;5022349;28;45483;-84
2022/04/11 09:16:21;;;;;;;;;5.33;5.00;;;;;27.50;18.60;100552.78;5033397;28;45462;-85
2022/04/11 09:18:48;;;;;;;;;4.67;4.00;;;;;27.86;18.42;100592.56;5022541;28;46181;-84
2022/04/11 09:21:13;;;;;;;;;4.00;4.00;;;;;27.83;18.73;100584.56;5030846;28;45380;-84
2022/04/11 09:23:38;;;;;;;;;5.00;5.00;;;;;27.75;18.75;100556.88;5027635;28;45752;-85
2022/04/11 09:26:20;;;;;;;;;2.67;2.67;;;;;28.09;18.80;100590.44;5026017;28;45683;-84
2022/04/11 09:29:15;;;;;;;;;5.00;3.67;;;;;28.26;18.70;100598.53;5028775;28;45471;-84
2022/04/11 09:31:41;;;;;;;;;2.00;2.00;;;;;28.28;18.39;100591.13;5005749;28;45668;-84
2022/04/11 09:34:18;;;;;;;;;4.00;4.00;;;;;27.97;18.66;100526.53;5030475;28;45276;-83
2022/04/11 09:36:45;;;;;;;;;4.67;3.67;;;;;28.11;18.06;100531.22;5033727;28;45483;-84
2022/04/11 09:39:10;;;;;;;;;5.33;3.00;;;;;28.27;18.47;100536.66;5026492;28;46935;-85
2022/04/11 09:41:42;;;;;;;;;4.00;3.00;;;;;28.31;18.36;100535.50;5019810;28;45832;-86
2022/04/11 09:44:24;;;;;;;;;2.00;2.00;;;;;28.55;18.32;100564.09;5020055;28;45542;-86
2022/04/11 09:46:51;;;;;;;;;3.00;3.00;;;;;28.02;18.22;100461.75;5032933;28;45368;-85
2022/04/11 09:49:17;;;;;;;;;3.00;3.00;;;;;28.27;18.41;100480.28;5013266;28;48295;-86
2022/04/11 09:52:05;;;;;;;;;3.00;3.00;;;;;28.91;18.10;100556.53;5038198;28;45937;-86
2022/04/11 09:54:31;;;;;;;;;2.33;2.33;;;;;28.30;17.94;100444.63;5018182;28;45609;-89
2022/04/11 09:57:01;;;;;;;;;2.00;2.00;;;;;28.19;18.21;100420.72;5010736;28;45887;-88
2022/04/11 09:59:27;;;;;;;;;1.00;1.00;;;;;29.05;17.69;100559.28;5025004;28;48058;-90
2022/04/11 10:01:54;;;;;;;;;2.00;2.00;;;;;29.16;17.79;100547.69;5019267;28;45501;-90
2022/04/11 10:04:21;;;;;;;;;2.00;2.00;;;;;29.07;17.91;100524.56;5021007;28;45754;-84
2022/04/11 10:06:47;;;;;;;;;3.00;3.00;;;;;28.63;18.02;100432.63;5027692;28;45507;-86
2022/04/11 10:09:14;;;;;;;;;2.33;2.00;;;;;28.62;17.60;100450.00;5025823;28;47960;-89
2022/04/11 10:11:44;;;;;;;;;3.00;3.00;;;;;29.27;17.51;100544.34;5034108;28;45543;-85
2022/04/11 10:14:11;;;;;;;;;3.33;3.00;;;;;29.15;17.57;100525.94;5025503;28;45533;-85
2022/04/11 10:16:44;;;;;;;;;3.00;3.00;;;;;28.85;17.94;100443.09;5023088;28;45796;-84
2022/04/11 10:19:11;;;;;;;;;3.00;3.00;;;;;28.69;18.00;100418.63;5018506;28;47192;-84
2022/04/11 10:21:41;;;;;;;;;2.67;2.00;;;;;28.91;16.95;100436.38;5024200;28;45644;-87
2022/04/11 10:24:33;;;;;;;;;3.00;3.00;;;;;28.94;17.56;100433.44;5027808;28;45506;-84
2022/04/11 10:27:20;;;;;;;;;3.00;3.00;;;;;28.95;18.06;100399.72;5022780;28;45590;-84
2022/04/11 10:29:49;;;;;;;;;2.00;2.00;;;;;29.43;17.64;100482.25;5024303;28;45827;-85
2022/04/11 10:32:51;;;;;;;;;3.00;3.00;;;;;29.80;17.29;100538.25;5042285;28;46548;-83
2022/04/11 10:35:32;;;;;;;;;2.00;2.00;;;;;29.49;17.36;100455.50;5020022;28;45623;-87
2022/04/11 10:37:58;;;;;;;;;2.00;2.00;;;;;29.93;17.37;100529.19;5019878;28;45641;-87
2022/04/11 10:40:23;;;;;;;;;1.00;1.00;;;;;30.08;17.16;100535.50;5023473;28;46148;-84
2022/04/11 10:43:01;;;;;;;;;2.67;2.67;;;;;30.25;17.74;100533.47;5026041;28;46367;-86
2022/04/11 10:45:31;;;;;;;;;3.67;3.67;;;;;30.17;17.24;100516.69;5018452;28;45468;-86
2022/04/11 10:47:57;;;;;;;;;1.00;0.00;;;;;30.31;17.27;100526.69;5022127;28;45594;-85
2022/04/11 10:53:24;;;;;;;;;3.00;3.00;;;;;30.00;17.99;100457.63;5013558;28;45819;-85
2022/04/11 10:56:07;;;;;;;;;3.00;3.00;;;;;30.28;17.74;100487.63;5022645;28;45605;-85
2022/04/11 10:58:50;;;;;;;;;2.33;2.33;;;;;30.15;18.05;100440.19;5022404;28;46058;-81
2022/04/11 11:01:45;;;;;;;;;2.67;2.67;;;;;30.55;17.25;100502.28;5023804;28;46393;-84
2022/04/11 11:04:18;;;;;;;;;4.00;3.00;;;;;30.59;17.35;100501.09;5019247;28;45683;-85
2022/04/11 11:06:44;;;;;;;;;4.00;4.00;;;;;30.60;17.79;100487.31;5023737;28;45599;-84
2022/04/11 11:09:16;;;;;;;;;4.00;4.00;;;;;30.52;17.72;100476.03;5025966;28;45461;-85
2022/04/11 11:11:42;;;;;;;;;0.00;0.00;;;;;30.71;17.81;100480.19;5021344;28;46276;-84
2022/04/11 11:14:42;;;;;;;;;2.00;2.00;;;;;30.65;17.85;100470.56;5021734;28;45411;-85
2022/04/11 11:17:08;;;;;;;;;2.00;2.00;;;;;30.60;17.44;100467.25;5024207;28;46100;-85
2022/04/11 11:20:07;;;;;;;;;4.33;4.33;;;;;30.90;17.26;100486.13;5042159;28;46034;-85
2022/04/11 11:23:15;;;;;;;;;1.00;0.00;;;;;30.85;17.36;100473.75;5022585;28;47055;-86
2022/04/11 11:25:41;;;;;;;;;3.00;3.00;;;;;30.85;17.04;100462.81;5030919;28;45735;-87
2022/04/11 11:28:07;;;;;;;;;2.00;2.00;;;;;30.89;17.37;100464.34;5033419;28;45203;-86